createdAt,value
2022-08-05T00:00:15.915Z,30.26
2022-08-05T00:02:51.008Z,30.32
2022-08-05T00:06:03.051Z,30.05
2022-08-05T00:08:34.237Z,30.11
2022-08-05T00:10:56.688Z,29.89
2022-08-05T00:13:39.063Z,30.06
2022-08-05T00:16:12.619Z,29.98
2022-08-05T00:18:48.749Z,30.06
2022-08-05T00:21:17.255Z,29.88
2022-08-05T00:24:06.137Z,29.78
2022-08-05T00:26:33.456Z,29.76
2022-08-05T00:29:00.177Z,29.72
2022-08-05T00:31:53.273Z,29.81
2022-08-05T00:34:56.409Z,29.91
2022-08-05T00:37:10.727Z,29.78
2022-08-05T00:39:43.921Z,29.74
2022-08-05T00:42:38.650Z,29.79
2022-08-05T00:45:08.642Z,29.74
2022-08-05T00:47:57.150Z,29.77
2022-08-05T00:50:25.786Z,29.46
2022-08-05T00:52:55.016Z,29.32
2022-08-05T00:55:23.053Z,29.51
2022-08-05T00:58:00.987Z,29.47
2022-08-05T01:00:30.345Z,29.26
2022-08-05T01:02:59.713Z,29.16
2022-08-05T01:05:27.720Z,29.01
2022-08-05T01:08:41.181Z,28.92
2022-08-05T01:10:52.137Z,28.93
2022-08-05T01:13:57.942Z,28.96
2022-08-05T01:16:31.039Z,28.90
2022-08-05T01:19:06.489Z,28.93
2022-08-05T01:21:59.783Z,28.88
2022-08-05T01:24:44.971Z,28.76
2022-08-05T01:27:55.164Z,28.84
2022-08-05T01:30:34.590Z,28.84
2022-08-05T01:33:08.304Z,28.89
2022-08-05T01:35:51.756Z,28.98
2022-08-05T01:38:27.074Z,28.83
2022-08-05T01:40:57.375Z,28.78
2022-08-05T01:43:25.599Z,28.71
2022-08-05T01:45:56.265Z,28.52
2022-08-05T01:48:26.915Z,28.57
2022-08-05T01:50:57.601Z,28.58
2022-08-05T01:53:56.988Z,28.47
2022-08-05T01:58:09.368Z,28.59
2022-08-05T01:59:06.489Z,28.45
2022-08-05T02:01:40.335Z,28.04
2022-08-05T02:04:10.327Z,28.22
2022-08-05T02:06:39.133Z,27.86
2022-08-05T02:09:07.257Z,28.03
2022-08-05T02:12:01.318Z,28.14
2022-08-05T02:14:33.249Z,28.12
2022-08-05T02:17:29.816Z,28.19
2022-08-05T02:20:07.055Z,28.24
2022-08-05T02:22:43.474Z,28.28
2022-08-05T02:25:26.235Z,28.30
2022-08-05T02:28:01.176Z,28.23
2022-08-05T02:30:36.991Z,28.26
2022-08-05T02:33:06.732Z,28.44
2022-08-05T02:35:38.571Z,28.35
2022-08-05T02:38:19.475Z,28.34
2022-08-05T02:40:47.562Z,28.32
2022-08-05T02:43:15.703Z,28.47
2022-08-05T02:45:52.500Z,28.38
2022-08-05T02:48:29.364Z,28.17
2022-08-05T02:51:00.948Z,28.23
2022-08-05T02:53:35.956Z,28.32
2022-08-05T02:56:09.421Z,28.25
2022-08-05T02:58:43.619Z,28.01
2022-08-05T03:01:14.872Z,28.07
2022-08-05T03:04:03.097Z,28.29
2022-08-05T03:06:55.389Z,28.36
2022-08-05T03:09:36.537Z,27.96
2022-08-05T03:12:06.241Z,27.92
2022-08-05T03:14:34.987Z,27.98
2022-08-05T03:17:12.585Z,27.98
2022-08-05T03:19:39.380Z,28.12
2022-08-05T03:22:16.639Z,28.06
2022-08-05T03:24:51.005Z,27.96
2022-08-05T03:27:20.584Z,27.90
2022-08-05T03:30:08.785Z,27.82
2022-08-05T03:32:36.374Z,27.70
2022-08-05T03:35:04.317Z,27.61
2022-08-05T03:37:31.505Z,27.65
2022-08-05T03:40:13.039Z,27.50
2022-08-05T03:42:51.555Z,27.50
2022-08-05T03:45:21.911Z,27.63
2022-08-05T03:47:50.225Z,27.61
2022-08-05T03:50:17.146Z,27.75
2022-08-05T03:55:06.890Z,27.79
2022-08-05T03:56:10.423Z,27.91
2022-08-05T03:58:42.471Z,28.17
2022-08-05T04:01:13.082Z,27.88
2022-08-05T04:04:09.019Z,28.14
2022-08-05T04:06:33.584Z,27.78
2022-08-05T04:09:02.352Z,27.81
2022-08-05T04:11:50.355Z,27.77
2022-08-05T04:14:18.971Z,27.77
2022-08-05T04:16:56.305Z,27.86
2022-08-05T04:19:23.414Z,27.81
2022-08-05T04:22:08.320Z,27.51
2022-08-05T04:24:43.992Z,27.34
2022-08-05T04:27:12.162Z,27.46
2022-08-05T04:29:39.380Z,27.43
2022-08-05T04:32:07.815Z,27.36
2022-08-05T04:34:36.645Z,27.64
2022-08-05T04:37:09.511Z,27.70
2022-08-05T04:39:36.353Z,27.38
2022-08-05T04:42:03.666Z,27.28
2022-08-05T04:44:30.839Z,27.09
2022-08-05T04:47:08.999Z,27.02
2022-08-05T04:49:38.644Z,26.93
2022-08-05T04:52:24.551Z,26.97
2022-08-05T04:54:57.435Z,27.07
2022-08-05T04:57:28.738Z,27.05
2022-08-05T04:59:57.368Z,27.06
2022-08-05T05:02:36.497Z,27.24
2022-08-05T05:05:26.270Z,27.24
2022-08-05T05:07:52.942Z,27.26
2022-08-05T05:10:23.517Z,27.24
2022-08-05T05:12:50.664Z,27.33
2022-08-05T05:15:56.421Z,27.07
2022-08-05T05:18:05.218Z,26.88
2022-08-05T05:20:32.905Z,27.00
2022-08-05T05:23:08.135Z,27.17
2022-08-05T05:25:46.361Z,27.28
2022-08-05T05:28:14.616Z,27.19
2022-08-05T05:30:42.455Z,27.06
2022-08-05T05:33:16.976Z,26.87
2022-08-05T05:35:47.929Z,26.70
2022-08-05T05:38:26.735Z,26.66
2022-08-05T05:40:55.740Z,26.54
2022-08-05T05:43:54.645Z,26.60
2022-08-05T05:46:17.756Z,26.66
2022-08-05T05:48:47.733Z,26.80
2022-08-05T05:51:25.941Z,26.96
2022-08-05T05:53:58.850Z,26.80
2022-08-05T05:56:34.577Z,26.96
2022-08-05T05:59:05.461Z,27.22
2022-08-05T06:01:38.181Z,27.19
2022-08-05T06:04:07.572Z,27.26
2022-08-05T06:06:35.633Z,27.11
2022-08-05T06:09:06.203Z,26.93
2022-08-05T06:11:34.888Z,26.96
2022-08-05T06:14:06.118Z,27.09
2022-08-05T06:16:37.205Z,27.38
2022-08-05T06:19:07.324Z,27.66
2022-08-05T06:21:38.370Z,27.91
2022-08-05T06:24:11.421Z,28.02
2022-08-05T06:26:51.545Z,27.83
2022-08-05T06:29:44.341Z,27.78
2022-08-05T06:32:25.412Z,27.62
2022-08-05T06:34:58.523Z,27.80
2022-08-05T06:37:39.403Z,27.95
2022-08-05T06:40:14.920Z,27.98
2022-08-05T06:42:48.643Z,28.33
2022-08-05T06:45:20.672Z,28.50
2022-08-05T06:48:35.940Z,28.50
2022-08-05T06:50:35.298Z,28.63
2022-08-05T06:53:11.640Z,28.09
2022-08-05T06:55:48.922Z,27.97
2022-08-05T06:58:29.035Z,28.07
2022-08-05T07:01:01.145Z,27.64
2022-08-05T07:03:32.767Z,28.05
2022-08-05T07:06:05.877Z,28.37
2022-08-05T07:08:47.688Z,28.73
2022-08-05T07:11:22.554Z,28.08
2022-08-05T07:14:20.227Z,28.03
2022-08-05T07:18:08.755Z,28.42
2022-08-05T07:20:23.131Z,28.44
2022-08-05T07:22:34.406Z,28.40
2022-08-05T07:25:23.685Z,28.06
2022-08-05T07:27:58.398Z,27.84
2022-08-05T07:30:38.865Z,27.82
2022-08-05T07:33:10.589Z,27.89
2022-08-05T07:36:01.814Z,27.95
2022-08-05T07:38:33.656Z,27.83
2022-08-05T07:42:09.440Z,27.93
2022-08-05T07:43:58.481Z,28.06
2022-08-05T07:46:26.894Z,28.20
2022-08-05T07:49:02.327Z,28.38
2022-08-05T07:51:48.625Z,28.33
2022-08-05T07:54:30.942Z,28.23
2022-08-05T07:57:13.812Z,28.36
2022-08-05T07:59:46.940Z,28.19
2022-08-05T08:02:17.639Z,28.06
2022-08-05T08:04:49.234Z,28.21
2022-08-05T08:07:22.814Z,28.29
2022-08-05T08:09:52.527Z,28.13
2022-08-05T08:12:37.283Z,28.24
2022-08-05T08:15:09.632Z,28.20
2022-08-05T08:17:46.197Z,28.24
2022-08-05T08:20:43.244Z,28.25
2022-08-05T08:23:07.521Z,28.26
2022-08-05T08:25:59.714Z,28.01
2022-08-05T08:28:36.716Z,28.08
2022-08-05T08:31:17.528Z,28.17
2022-08-05T08:33:45.082Z,28.25
2022-08-05T08:36:38.144Z,28.16
2022-08-05T08:38:58.925Z,28.29
2022-08-05T08:41:52.200Z,28.13
2022-08-05T08:45:19.856Z,27.96
2022-08-05T08:47:47.198Z,27.99
2022-08-05T08:50:14.138Z,28.18
2022-08-05T08:52:53.811Z,28.26
2022-08-05T08:55:31.865Z,28.38
2022-08-05T08:58:10.003Z,28.30
2022-08-05T09:00:40.514Z,28.34
2022-08-05T09:03:15.924Z,28.48
2022-08-05T09:06:08.689Z,28.32
2022-08-05T09:08:34.537Z,28.24
2022-08-05T09:11:01.427Z,28.19
2022-08-05T09:13:31.490Z,28.38
2022-08-05T09:16:14.513Z,28.54
2022-08-05T09:18:44.424Z,28.79
2022-08-05T09:21:11.438Z,29.18
2022-08-05T09:23:43.615Z,29.07
2022-08-05T09:26:15.914Z,29.09
2022-08-05T09:28:48.290Z,29.22
2022-08-05T09:31:43.824Z,29.33
2022-08-05T09:34:05.520Z,29.33
2022-08-05T09:36:56.391Z,29.13
2022-08-05T09:39:41.392Z,29.19
2022-08-05T09:42:23.683Z,29.19
2022-08-05T09:44:56.521Z,29.19
2022-08-05T09:47:48.390Z,29.24
2022-08-05T09:50:18.253Z,29.21
2022-08-05T09:53:01.160Z,28.91
2022-08-05T09:55:56.947Z,29.11
2022-08-05T09:58:15.758Z,29.30
2022-08-05T10:01:13.462Z,29.54
2022-08-05T10:04:00.126Z,29.72
2022-08-05T10:06:28.150Z,29.86
2022-08-05T10:08:56.170Z,29.74
2022-08-05T10:11:23.490Z,29.46
2022-08-05T10:13:54.608Z,29.24
2022-08-05T10:16:33.854Z,29.21
2022-08-05T10:19:08.572Z,29.48
2022-08-05T10:21:40.414Z,29.32
2022-08-05T10:24:12.941Z,29.09
2022-08-05T10:26:51.579Z,29.31
2022-08-05T10:29:23.465Z,29.35
2022-08-05T10:32:54.347Z,29.52
2022-08-05T10:34:40.933Z,29.08
2022-08-05T10:37:08.106Z,29.08
2022-08-05T10:39:59.260Z,28.82
2022-08-05T10:42:33.741Z,29.13
2022-08-05T10:45:02.220Z,29.34
2022-08-05T10:48:29.865Z,29.54
2022-08-05T10:51:00.425Z,29.26
2022-08-05T10:53:38.000Z,29.05
2022-08-05T10:56:25.593Z,29.30
2022-08-05T10:58:52.864Z,29.51
2022-08-05T11:01:55.471Z,29.21
2022-08-05T11:04:27.947Z,29.42
2022-08-05T11:06:58.011Z,29.28
2022-08-05T11:09:45.116Z,29.28
2022-08-05T11:12:37.391Z,29.02
2022-08-05T11:15:20.489Z,29.12
2022-08-05T11:17:57.566Z,29.18
2022-08-05T11:20:41.859Z,29.57
2022-08-05T11:23:33.413Z,29.69
2022-08-05T11:26:17.222Z,29.62
2022-08-05T11:29:12.146Z,29.69
2022-08-05T11:31:54.400Z,29.85
2022-08-05T11:34:47.647Z,29.81
2022-08-05T11:38:29.935Z,29.94
2022-08-05T11:41:03.489Z,29.69
2022-08-05T11:44:08.388Z,29.50
2022-08-05T11:46:58.569Z,29.29
2022-08-05T11:49:26.938Z,29.06
2022-08-05T11:51:54.930Z,28.96
2022-08-05T11:54:33.214Z,28.90
2022-08-05T11:57:08.575Z,29.27
2022-08-05T11:59:50.781Z,29.23
2022-08-05T12:02:30.335Z,29.40
2022-08-05T12:05:01.236Z,29.60
2022-08-05T12:08:04.395Z,29.75
2022-08-05T12:10:42.840Z,29.68
2022-08-05T12:13:28.216Z,29.77
2022-08-05T12:16:14.542Z,29.90
2022-08-05T12:18:52.484Z,29.72
2022-08-05T12:21:23.534Z,29.44
2022-08-05T12:24:08.300Z,29.32
2022-08-05T12:26:44.056Z,29.40
2022-08-05T12:29:16.322Z,29.54
2022-08-05T12:32:01.979Z,29.69
2022-08-05T12:34:32.382Z,29.62
2022-08-05T12:37:03.492Z,29.62
2022-08-05T12:39:37.298Z,29.62
2022-08-05T12:42:17.216Z,29.59
2022-08-05T12:44:45.876Z,29.69
2022-08-05T12:47:26.562Z,29.72
2022-08-05T12:50:02.946Z,29.46
2022-08-05T12:52:39.579Z,29.65
2022-08-05T12:55:21.995Z,29.63
2022-08-05T12:58:51.533Z,29.66
2022-08-05T13:02:03.463Z,29.80
2022-08-05T13:03:32.494Z,29.81
2022-08-05T13:06:06.566Z,29.93
2022-08-05T13:08:38.734Z,30.05
2022-08-05T13:11:07.816Z,30.19
2022-08-05T13:14:05.634Z,29.81
2022-08-05T13:16:27.776Z,29.95
2022-08-05T13:18:58.623Z,29.98
2022-08-05T13:21:27.743Z,29.97
2022-08-05T13:24:05.478Z,30.04
2022-08-05T13:26:32.425Z,30.19
2022-08-05T13:28:59.618Z,30.32
2022-08-05T13:31:33.781Z,30.45
2022-08-05T13:34:24.285Z,30.48
2022-08-05T13:36:53.857Z,30.25
2022-08-05T13:40:12.918Z,30.31
2022-08-05T13:42:14.560Z,30.36
2022-08-05T13:44:45.542Z,30.42
2022-08-05T13:47:35.247Z,30.70
2022-08-05T13:50:06.783Z,30.66
2022-08-05T13:52:38.117Z,30.78
2022-08-05T13:55:08.013Z,30.93
2022-08-05T13:57:50.639Z,30.87
2022-08-05T14:00:26.893Z,30.84
2022-08-05T14:02:56.517Z,30.87
2022-08-05T14:05:48.426Z,31.05
2022-08-05T14:08:19.894Z,31.25
2022-08-05T14:10:47.683Z,31.20
2022-08-05T14:13:15.248Z,31.39
2022-08-05T14:16:08.020Z,31.49
2022-08-05T14:18:29.006Z,31.60
2022-08-05T14:20:55.689Z,31.64
2022-08-05T14:23:24.986Z,31.85
2022-08-05T14:25:58.230Z,31.84
2022-08-05T14:28:30.744Z,31.87
2022-08-05T14:30:58.729Z,31.93
2022-08-05T14:33:25.513Z,31.55
2022-08-05T14:35:54.435Z,31.35
2022-08-05T14:38:32.290Z,31.11
2022-08-05T14:41:06.114Z,31.26
2022-08-05T14:44:00.259Z,31.17
2022-08-05T14:46:28.466Z,30.85
2022-08-05T14:48:58.215Z,30.87
2022-08-05T14:51:30.978Z,30.68
2022-08-05T14:54:26.413Z,30.68
2022-08-05T14:56:46.949Z,30.57
2022-08-05T14:59:14.399Z,30.46
2022-08-05T15:01:48.509Z,31.05
2022-08-05T15:04:20.615Z,31.81
2022-08-05T15:06:50.598Z,31.56
2022-08-05T15:09:54.120Z,31.92
2022-08-05T15:12:06.840Z,31.88
2022-08-05T15:14:48.305Z,31.94
2022-08-05T15:17:46.651Z,32.15
2022-08-05T15:20:15.635Z,32.62
2022-08-05T15:22:45.289Z,32.06
2022-08-05T15:25:14.021Z,31.95
2022-08-05T15:27:42.920Z,32.51
2022-08-05T15:30:18.734Z,32.17
2022-08-05T15:32:45.508Z,31.92
2022-08-05T15:35:12.847Z,31.08
2022-08-05T15:38:32.953Z,30.87
2022-08-05T15:41:02.713Z,31.10
2022-08-05T15:43:20.025Z,30.60
2022-08-05T15:46:00.684Z,30.26
2022-08-05T15:48:28.504Z,29.91
2022-08-05T15:50:55.223Z,29.73
2022-08-05T15:53:23.257Z,29.59
2022-08-05T15:56:03.010Z,29.34
2022-08-05T15:58:36.887Z,29.69
2022-08-05T16:01:17.180Z,29.54
2022-08-05T16:03:48.626Z,29.49
2022-08-05T16:06:19.628Z,29.27
2022-08-05T16:08:50.261Z,29.35
2022-08-05T16:11:18.188Z,29.31
2022-08-05T16:13:48.400Z,29.38
2022-08-05T16:16:15.930Z,29.40
2022-08-05T16:18:52.654Z,28.99
2022-08-05T16:21:20.814Z,28.87
2022-08-05T16:24:38.775Z,28.81
2022-08-05T16:26:57.743Z,28.95
2022-08-05T16:29:25.785Z,28.88
2022-08-05T16:31:57.355Z,28.86
2022-08-05T16:34:25.755Z,28.75
2022-08-05T16:36:53.767Z,28.69
2022-08-05T16:39:21.541Z,28.66
2022-08-05T16:42:13.902Z,28.56
2022-08-05T16:44:57.130Z,28.46
2022-08-05T16:47:29.077Z,28.18
2022-08-05T16:50:05.205Z,28.29
2022-08-05T16:52:33.409Z,28.40
2022-08-05T16:55:00.514Z,28.26
2022-08-05T16:57:52.535Z,28.34
2022-08-05T17:00:14.437Z,28.16
2022-08-05T17:02:53.447Z,27.97
2022-08-05T17:05:20.614Z,27.95
2022-08-05T17:07:54.762Z,27.82
2022-08-05T17:10:21.993Z,27.76
2022-08-05T17:12:57.873Z,27.85
2022-08-05T17:15:24.782Z,27.71
2022-08-05T17:18:14.079Z,27.74
2022-08-05T17:20:42.443Z,27.68
2022-08-05T17:23:10.927Z,27.57
2022-08-05T17:25:57.670Z,27.35
2022-08-05T17:28:24.350Z,27.40
2022-08-05T17:30:52.275Z,27.49
2022-08-05T17:33:20.917Z,27.25
2022-08-05T17:36:08.863Z,27.16
2022-08-05T17:38:34.626Z,27.29
2022-08-05T17:41:01.842Z,27.19
2022-08-05T17:43:46.590Z,27.34
2022-08-05T17:46:15.513Z,26.95
2022-08-05T17:48:44.994Z,27.16
2022-08-05T17:51:14.455Z,27.04
2022-08-05T17:53:54.494Z,27.16
2022-08-05T17:56:22.639Z,27.18
2022-08-05T17:58:49.835Z,27.12
2022-08-05T18:01:18.467Z,27.04
2022-08-05T18:03:59.270Z,27.04
2022-08-05T18:06:31.455Z,27.04
2022-08-05T18:08:59.169Z,27.12
2022-08-05T18:11:33.208Z,27.04
2022-08-05T18:14:07.197Z,26.89
2022-08-05T18:16:49.614Z,26.61
2022-08-05T18:19:22.942Z,26.78
2022-08-05T18:22:08.286Z,26.69
2022-08-05T18:24:37.942Z,26.66
2022-08-05T18:27:12.861Z,26.76
2022-08-05T18:29:50.475Z,26.63
2022-08-05T18:32:21.732Z,26.52
2022-08-05T18:34:55.568Z,26.64
2022-08-05T18:37:34.667Z,26.86
2022-08-05T18:40:33.772Z,26.85
2022-08-05T18:42:55.127Z,26.76
2022-08-05T18:45:22.406Z,26.69
2022-08-05T18:47:56.441Z,26.79
2022-08-05T18:50:46.257Z,26.73
2022-08-05T18:53:19.318Z,26.79
2022-08-05T18:55:49.389Z,26.59
2022-08-05T18:58:16.533Z,26.40
2022-08-05T19:00:43.539Z,26.67
2022-08-05T19:03:14.957Z,26.59
2022-08-05T19:06:11.485Z,26.25
2022-08-05T19:08:30.549Z,26.26
2022-08-05T19:10:59.348Z,26.17
2022-08-05T19:13:26.135Z,25.96
2022-08-05T19:15:59.959Z,25.87
2022-08-05T19:18:30.009Z,25.94
2022-08-05T19:20:59.398Z,25.87
2022-08-05T19:24:06.563Z,25.88
2022-08-05T19:26:27.389Z,25.75
2022-08-05T19:28:54.299Z,25.83
2022-08-05T19:31:23.606Z,25.72
2022-08-05T19:33:56.933Z,25.72
2022-08-05T19:36:29.437Z,25.65
2022-08-05T19:39:01.147Z,25.50
2022-08-05T19:42:05.852Z,25.63
2022-08-05T19:44:18.379Z,25.55
2022-08-05T19:46:45.559Z,25.69
2022-08-05T19:49:12.566Z,25.57
2022-08-05T19:52:08.661Z,25.58
2022-08-05T19:54:32.726Z,25.76
2022-08-05T19:57:02.079Z,25.76
2022-08-05T19:59:55.836Z,25.61
2022-08-05T20:02:17.431Z,25.53
2022-08-05T20:04:45.897Z,25.77
2022-08-05T20:07:13.986Z,25.66
2022-08-05T20:09:54.602Z,25.50
2022-08-05T20:12:23.544Z,25.56
2022-08-05T20:14:52.216Z,25.48
2022-08-05T20:17:23.744Z,25.50
2022-08-05T20:19:56.930Z,25.49
2022-08-05T20:22:26.930Z,25.64
2022-08-05T20:24:55.827Z,25.68
2022-08-05T20:27:27.051Z,25.63
2022-08-05T20:29:57.566Z,25.56
2022-08-05T20:32:26.218Z,25.46
2022-08-05T20:34:53.252Z,25.44
2022-08-05T20:38:04.835Z,25.56
2022-08-05T20:40:09.166Z,25.20
2022-08-05T20:42:36.171Z,25.20
2022-08-05T20:45:05.236Z,25.20
2022-08-05T20:47:33.296Z,25.22
2022-08-05T20:50:02.197Z,25.06
2022-08-05T20:52:31.157Z,24.92
2022-08-05T20:55:54.326Z,24.83
2022-08-05T20:57:45.703Z,24.86
2022-08-05T21:00:36.330Z,24.90
2022-08-05T21:03:06.197Z,24.83
2022-08-05T21:05:47.620Z,24.88
2022-08-05T21:08:33.008Z,24.80
2022-08-05T21:11:11.970Z,24.83
2022-08-05T21:13:48.413Z,24.61
2022-08-05T21:16:29.765Z,24.87
2022-08-05T21:18:59.972Z,24.60
2022-08-05T21:21:39.004Z,24.66
2022-08-05T21:24:12.889Z,24.56
2022-08-05T21:26:41.293Z,24.49
2022-08-05T21:29:09.952Z,24.48
2022-08-05T21:31:41.579Z,24.32
2022-08-05T21:34:10.548Z,24.29
2022-08-05T21:36:38.433Z,24.19
2022-08-05T21:39:05.520Z,24.21
2022-08-05T21:41:35.719Z,24.49
2022-08-05T21:44:04.885Z,24.34
2022-08-05T21:46:34.503Z,24.36
2022-08-05T21:49:07.299Z,24.27
2022-08-05T21:52:22.710Z,24.31
2022-08-05T21:54:30.737Z,24.22
2022-08-05T21:57:28.480Z,24.05
2022-08-05T22:00:03.312Z,24.11
2022-08-05T22:02:39.936Z,23.97
2022-08-05T22:05:09.539Z,24.03
2022-08-05T22:07:40.159Z,24.01
2022-08-05T22:10:25.575Z,23.87
2022-08-05T22:12:57.620Z,23.97
2022-08-05T22:15:57.228Z,23.80
2022-08-05T22:18:14.594Z,23.87
2022-08-05T22:20:41.906Z,23.91
2022-08-05T22:24:02.791Z,23.87
2022-08-05T22:26:35.010Z,24.01
2022-08-05T22:29:02.874Z,23.82
2022-08-05T22:31:30.772Z,23.71
2022-08-05T22:34:11.462Z,23.77
2022-08-05T22:36:48.170Z,23.58
2022-08-05T22:39:19.837Z,23.74
2022-08-05T22:42:10.387Z,23.65
2022-08-05T22:44:35.744Z,23.78
2022-08-05T22:47:04.998Z,23.64
2022-08-05T22:50:17.535Z,23.47
2022-08-05T22:52:30.254Z,23.31
2022-08-05T22:54:59.701Z,23.31
2022-08-05T22:57:26.760Z,23.26
2022-08-05T22:59:54.280Z,23.18
2022-08-05T23:02:29.457Z,23.06
2022-08-05T23:05:01.951Z,23.06
2022-08-05T23:07:32.632Z,23.05
2022-08-05T23:10:10.765Z,23.05
2022-08-05T23:12:38.120Z,23.12
2022-08-05T23:15:09.293Z,22.88
2022-08-05T23:18:02.348Z,22.98
2022-08-05T23:20:25.663Z,22.76
2022-08-05T23:22:55.833Z,22.83
2022-08-05T23:25:51.688Z,22.81
2022-08-05T23:28:11.232Z,22.87
2022-08-05T23:30:40.249Z,22.68
2022-08-05T23:33:22.564Z,22.79
2022-08-05T23:35:55.900Z,22.87
2022-08-05T23:38:24.251Z,22.61
2022-08-05T23:40:52.807Z,22.88
2022-08-05T23:43:24.921Z,22.62
2022-08-05T23:46:20.614Z,22.57
2022-08-05T23:48:59.894Z,22.74
2022-08-05T23:51:54.272Z,22.56
2022-08-05T23:54:36.577Z,22.48
2022-08-05T23:57:06.014Z,22.63
